createdAt,value
2019-03-19T00:02:17.556Z,-21362.20
2019-03-19T00:04:45.902Z,-21367.41
2019-03-19T00:07:14.150Z,-21371.92
2019-03-19T00:09:42.429Z,-21402.87
2019-03-19T00:12:10.707Z,-21384.45
2019-03-19T00:14:39.079Z,-21360.23
2019-03-19T00:17:07.369Z,-21358.54
2019-03-19T00:19:35.640Z,-21411.87
2019-03-19T00:22:04.019Z,-21369.38
2019-03-19T00:24:32.306Z,-21381.49
2019-03-19T00:27:00.564Z,-21439.11
2019-03-19T00:29:28.862Z,-21403.86
2019-03-19T00:31:57.126Z,-21376.00
2019-03-19T00:34:26.260Z,-21383.04
2019-03-19T00:36:54.538Z,-21374.88
2019-03-19T00:39:22.847Z,-21374.45
2019-03-19T00:41:51.125Z,-21383.04
2019-03-19T00:44:19.459Z,-21431.11
2019-03-19T00:46:47.816Z,-21410.18
2019-03-19T00:49:16.070Z,-21396.26
2019-03-19T00:51:44.348Z,-21415.94
2019-03-19T00:54:12.615Z,-21437.99
2019-03-19T00:56:40.900Z,-21458.05
2019-03-19T00:59:09.171Z,-21457.49
2019-03-19T01:01:38.802Z,-21389.65
2019-03-19T01:04:07.279Z,-21404.84
2019-03-19T01:06:35.544Z,-21393.30
2019-03-19T01:09:05.772Z,-21441.22
2019-03-19T01:11:34.031Z,-21466.47
2019-03-19T01:14:02.318Z,-21436.86
2019-03-19T01:16:30.604Z,-21449.64
2019-03-19T01:18:58.867Z,-21426.48
2019-03-19T01:21:27.126Z,-21394.15
2019-03-19T01:23:55.422Z,-21411.16
2019-03-19T01:26:23.660Z,-21413.84
2019-03-19T01:28:51.942Z,-21428.59
2019-03-19T01:31:20.206Z,-21440.93
2019-03-19T01:33:48.451Z,-21458.05
2019-03-19T01:36:16.714Z,-21398.23
2019-03-19T01:38:44.973Z,-21410.04
2019-03-19T01:41:13.259Z,-21425.77
2019-03-19T01:43:41.517Z,-21460.44
2019-03-19T01:46:09.797Z,-21464.92
2019-03-19T01:48:38.071Z,-21446.83
2019-03-19T01:51:06.358Z,-21463.66
2019-03-19T01:53:34.611Z,-21486.49
2019-03-19T01:56:05.363Z,-21459.45
2019-03-19T01:58:32.857Z,-21452.02
2019-03-19T02:01:01.136Z,-21403.29
2019-03-19T02:03:29.402Z,-21452.86
2019-03-19T02:05:57.673Z,-21483.70
2019-03-19T02:08:25.961Z,-21483.27
2019-03-19T02:10:54.346Z,-21472.63
2019-03-19T02:13:22.591Z,-21460.15
2019-03-19T02:15:50.898Z,-21475.85
2019-03-19T02:18:19.169Z,-21461.98
2019-03-19T02:20:47.433Z,-21469.97
2019-03-19T02:23:15.680Z,-21463.80
2019-03-19T02:25:44.045Z,-21475.71
2019-03-19T02:28:12.357Z,-21474.45
2019-03-19T02:30:40.610Z,-21462.68
2019-03-19T02:33:09.648Z,-21457.77
2019-03-19T02:35:37.894Z,-21463.10
2019-03-19T02:38:06.154Z,-21449.64
2019-03-19T02:40:34.467Z,-21468.29
2019-03-19T02:43:02.792Z,-21471.23
2019-03-19T02:45:31.066Z,-21439.81
2019-03-19T02:47:59.341Z,-21444.73
2019-03-19T02:50:27.582Z,-21442.62
2019-03-19T02:52:55.838Z,-21457.77
2019-03-19T02:55:24.129Z,-21483.55
2019-03-19T02:57:52.452Z,-21492.10
2019-03-19T03:00:20.737Z,-21489.44
2019-03-19T03:02:49.015Z,-21502.59
2019-03-19T03:05:18.794Z,-21498.11
2019-03-19T03:07:47.629Z,-21464.92
2019-03-19T03:10:15.996Z,-21457.91
2019-03-19T03:12:44.448Z,-21469.27
2019-03-19T03:15:13.952Z,-21445.99
2019-03-19T03:17:42.422Z,-21458.47
2019-03-19T03:20:12.581Z,-21439.68
2019-03-19T03:22:41.585Z,-21431.39
2019-03-19T03:25:12.335Z,-21447.67
2019-03-19T03:27:40.627Z,-21436.02
2019-03-19T03:30:16.671Z,-21449.64
2019-03-19T03:32:45.066Z,-21446.13
2019-03-19T03:35:13.395Z,-21447.11
2019-03-19T03:37:41.649Z,-21449.64
2019-03-19T03:40:17.600Z,-21439.81
2019-03-19T03:42:48.007Z,-21411.30
2019-03-19T03:45:18.473Z,-21453.29
2019-03-19T03:47:46.896Z,-21441.64
2019-03-19T03:50:19.277Z,-21429.43
2019-03-19T03:52:47.597Z,-21446.83
2019-03-19T03:55:16.628Z,-21425.50
2019-03-19T03:57:44.982Z,-21432.38
2019-03-19T04:00:17.679Z,-21448.24
2019-03-19T04:02:45.997Z,-21454.26
2019-03-19T04:05:14.325Z,-21468.99
2019-03-19T04:07:42.645Z,-21467.30
2019-03-19T04:10:12.629Z,-21436.30
2019-03-19T04:12:40.908Z,-21428.02
2019-03-19T04:15:12.173Z,-21455.39
2019-03-19T04:17:40.448Z,-21443.18
2019-03-19T04:20:12.795Z,-21457.21
2019-03-19T04:22:41.318Z,-21462.68
2019-03-19T04:25:10.871Z,-21402.73
2019-03-19T04:27:40.735Z,-21444.87
2019-03-19T04:30:12.401Z,-21442.62
2019-03-19T04:32:40.684Z,-21397.53
2019-03-19T04:35:08.954Z,-21411.87
2019-03-19T04:37:37.225Z,-21406.25
2019-03-19T04:40:08.639Z,-21401.60
2019-03-19T04:42:36.939Z,-21429.14
2019-03-19T04:45:07.143Z,-21434.06
2019-03-19T04:47:35.431Z,-21419.59
2019-03-19T04:50:05.841Z,-21421.70
2019-03-19T04:52:34.104Z,-21448.52
2019-03-19T04:55:02.399Z,-21425.50
2019-03-19T04:57:30.660Z,-21437.29
2019-03-19T04:59:59.150Z,-21443.88
2019-03-19T05:02:27.371Z,-21427.32
2019-03-19T05:04:55.650Z,-21433.78
2019-03-19T05:07:23.932Z,-21443.32
2019-03-19T05:09:52.196Z,-21452.02
2019-03-19T05:12:20.441Z,-21448.09
2019-03-19T05:14:48.704Z,-21446.13
2019-03-19T05:17:16.984Z,-21451.60
2019-03-19T05:19:45.257Z,-21448.38
2019-03-19T05:22:13.540Z,-21465.34
2019-03-19T05:24:41.815Z,-21453.00
2019-03-19T05:27:10.075Z,-21460.71
2019-03-19T05:29:38.379Z,-21429.57
2019-03-19T05:32:06.644Z,-21464.50
2019-03-19T05:34:34.920Z,-21442.20
2019-03-19T05:37:03.165Z,-21391.90
2019-03-19T05:39:31.458Z,-21406.66
2019-03-19T05:41:59.734Z,-21424.52
2019-03-19T05:44:28.029Z,-21436.02
2019-03-19T05:46:56.275Z,-21468.29
2019-03-19T05:49:24.520Z,-21431.39
2019-03-19T05:51:52.799Z,-21440.51
2019-03-19T05:54:21.038Z,-21439.39
2019-03-19T05:56:49.307Z,-21424.65
2019-03-19T05:59:17.564Z,-21412.29
2019-03-19T06:01:45.833Z,-21404.84
2019-03-19T06:04:14.099Z,-21429.85
2019-03-19T06:06:42.374Z,-21404.28
2019-03-19T06:09:10.665Z,-21406.39
2019-03-19T06:11:38.909Z,-21403.01
2019-03-19T06:14:07.158Z,-21439.39
2019-03-19T06:16:35.456Z,-21429.14
2019-03-19T06:19:03.701Z,-21442.62
2019-03-19T06:21:31.959Z,-21379.66
2019-03-19T06:24:00.252Z,-21381.63
2019-03-19T06:26:28.538Z,-21423.39
2019-03-19T06:28:56.797Z,-21422.27
2019-03-19T06:31:25.074Z,-21434.76
2019-03-19T06:33:53.370Z,-21438.69
2019-03-19T06:36:21.616Z,-21431.54
2019-03-19T06:38:49.899Z,-21438.97
2019-03-19T06:41:18.224Z,-21426.34
2019-03-19T06:43:46.498Z,-21410.60
2019-03-19T06:46:14.790Z,-21437.85
2019-03-19T06:48:43.052Z,-21437.29
2019-03-19T06:51:16.920Z,-21416.93
2019-03-19T06:53:45.774Z,-21427.74
2019-03-19T06:56:14.959Z,-21461.70
2019-03-19T06:58:43.305Z,-21461.42
2019-03-19T07:01:12.664Z,-21449.22
2019-03-19T07:03:40.962Z,-21456.65
2019-03-19T07:06:09.247Z,-21455.66
2019-03-19T07:08:37.522Z,-21464.50
2019-03-19T07:11:05.785Z,-21488.60
2019-03-19T07:13:34.057Z,-21492.80
2019-03-19T07:16:02.341Z,-21481.88
2019-03-19T07:18:30.608Z,-21470.53
2019-03-19T07:20:58.855Z,-21474.03
2019-03-19T07:23:27.136Z,-21438.55
2019-03-19T07:25:55.419Z,-21453.43
2019-03-19T07:28:23.692Z,-21464.08
2019-03-19T07:30:51.962Z,-21465.20
2019-03-19T07:33:21.961Z,-21474.45
2019-03-19T07:35:50.314Z,-21476.13
2019-03-19T07:38:18.580Z,-21493.50
2019-03-19T07:40:46.863Z,-21473.33
2019-03-19T07:43:15.112Z,-21475.99
2019-03-19T07:45:43.388Z,-21483.70
2019-03-19T07:48:11.664Z,-21492.66
2019-03-19T07:50:40.314Z,-21453.00
2019-03-19T07:53:08.582Z,-21498.11
2019-03-19T07:55:36.852Z,-21502.31
2019-03-19T07:58:05.113Z,-21509.03
2019-03-19T08:00:33.405Z,-21516.58
2019-03-19T08:03:01.701Z,-21516.16
2019-03-19T08:05:33.330Z,-21495.18
2019-03-19T08:08:00.018Z,-21502.73
2019-03-19T08:10:28.274Z,-21512.66
2019-03-19T08:12:58.974Z,-21524.40
2019-03-19T08:15:27.251Z,-21530.28
2019-03-19T08:17:55.509Z,-21507.62
2019-03-19T08:20:23.761Z,-21508.89
2019-03-19T08:22:52.086Z,-21510.01
2019-03-19T08:25:20.363Z,-21515.04
2019-03-19T08:27:48.644Z,-21510.15
2019-03-19T08:30:18.955Z,-21511.27
2019-03-19T08:32:47.229Z,-21512.66
2019-03-19T08:35:15.554Z,-21518.12
2019-03-19T08:37:43.907Z,-21529.16
2019-03-19T08:40:18.702Z,-21549.55
2019-03-19T08:42:46.969Z,-21551.92
2019-03-19T08:45:17.728Z,-21529.86
2019-03-19T08:47:45.983Z,-21506.79
2019-03-19T08:50:22.298Z,-21537.82
2019-03-19T08:52:50.574Z,-21547.03
2019-03-19T08:55:18.838Z,-21553.59
2019-03-19T08:57:47.825Z,-21546.05
2019-03-19T09:00:24.539Z,-21566.15
2019-03-19T09:02:52.832Z,-21560.01
2019-03-19T09:05:21.116Z,-21505.81
2019-03-19T09:07:49.458Z,-21497.13
2019-03-19T09:10:18.769Z,-21496.02
2019-03-19T09:12:48.381Z,-21506.09
2019-03-19T09:15:19.305Z,-21512.66
2019-03-19T09:17:47.571Z,-21553.88
2019-03-19T09:20:16.760Z,-21580.22
2019-03-19T09:22:45.113Z,-21578.84
2019-03-19T09:25:13.372Z,-21567.27
2019-03-19T09:27:41.627Z,-21548.99
2019-03-19T09:30:15.759Z,-21547.17
2019-03-19T09:32:44.010Z,-21554.85
2019-03-19T09:35:12.352Z,-21534.75
2019-03-19T09:37:44.412Z,-21554.43
2019-03-19T09:40:15.522Z,-21596.66
2019-03-19T09:42:43.770Z,-21529.86
2019-03-19T09:45:13.283Z,-21565.17
2019-03-19T09:47:41.543Z,-21521.05
2019-03-19T09:50:12.741Z,-21516.30
2019-03-19T09:52:41.062Z,-21532.37
2019-03-19T09:55:17.161Z,-21521.19
2019-03-19T09:57:45.432Z,-21549.55
2019-03-19T10:00:21.719Z,-21551.50
2019-03-19T10:02:49.997Z,-21476.83
2019-03-19T10:05:18.365Z,-21496.57
2019-03-19T10:07:46.788Z,-21505.11
2019-03-19T10:10:18.969Z,-21486.36
2019-03-19T10:12:47.274Z,-21528.32
2019-03-19T10:15:15.679Z,-21426.90
2019-03-19T10:17:43.937Z,-21484.25
2019-03-19T10:20:18.428Z,-21534.46
2019-03-19T10:22:46.798Z,-21546.05
2019-03-19T10:25:15.988Z,-21517.14
2019-03-19T10:27:44.263Z,-21538.37
2019-03-19T10:30:22.618Z,-21566.29
2019-03-19T10:32:50.975Z,-21556.94
2019-03-19T10:35:19.315Z,-21542.00
2019-03-19T10:37:47.587Z,-21536.84
2019-03-19T10:40:19.969Z,-21541.45
2019-03-19T10:42:49.269Z,-21544.80
2019-03-19T10:45:22.665Z,-21552.90
2019-03-19T10:47:51.096Z,-21578.00
2019-03-19T10:50:23.695Z,-21565.03
2019-03-19T10:52:51.978Z,-21600.14
2019-03-19T10:55:20.306Z,-21601.95
2019-03-19T10:57:48.570Z,-21593.04
2019-03-19T11:00:27.402Z,-21600.14
2019-03-19T11:02:55.683Z,-21640.05
2019-03-19T11:05:24.664Z,-21649.49
2019-03-19T11:07:53.087Z,-21652.13
2019-03-19T11:10:21.689Z,-21639.64
2019-03-19T11:12:49.962Z,-21658.10
2019-03-19T11:15:19.273Z,-21567.12
2019-03-19T11:17:47.610Z,-21571.72
2019-03-19T11:20:17.329Z,-21584.26
2019-03-19T11:22:45.743Z,-21564.61
2019-03-19T11:25:15.993Z,-21565.59
2019-03-19T11:27:44.596Z,-21567.41
2019-03-19T11:30:23.500Z,-21503.99
2019-03-19T11:32:51.825Z,-21535.30
2019-03-19T11:35:20.263Z,-21542.71
2019-03-19T11:37:48.606Z,-21592.21
2019-03-19T11:40:17.905Z,-21666.97
2019-03-19T11:42:46.778Z,-21657.27
2019-03-19T11:45:17.003Z,-21661.29
2019-03-19T11:47:45.360Z,-21682.64
2019-03-19T11:50:19.298Z,-21709.78
2019-03-19T11:52:47.573Z,-21739.64
2019-03-19T11:55:17.026Z,-21742.54
2019-03-19T11:57:47.865Z,-21737.57
2019-03-19T12:00:23.828Z,-21754.54
2019-03-19T12:02:52.192Z,-21769.03
2019-03-19T12:05:20.475Z,-21742.67
2019-03-19T12:07:48.753Z,-21644.08
2019-03-19T12:10:17.058Z,-21704.66
2019-03-19T12:12:45.352Z,-21740.19
2019-03-19T12:15:14.010Z,-21788.87
2019-03-19T12:17:42.274Z,-21742.26
2019-03-19T12:20:12.394Z,-21807.45
2019-03-19T12:22:40.749Z,-21789.70
2019-03-19T12:25:11.307Z,-21803.46
2019-03-19T12:27:39.586Z,-21834.66
2019-03-19T12:30:22.509Z,-21844.82
2019-03-19T12:32:48.285Z,-21809.79
2019-03-19T12:35:18.109Z,-21836.17
2019-03-19T12:37:46.377Z,-21860.32
2019-03-19T12:40:16.997Z,-21870.60
2019-03-19T12:42:45.351Z,-21860.05
2019-03-19T12:45:18.306Z,-21857.03
2019-03-19T12:47:46.708Z,-21760.06
2019-03-19T12:50:17.898Z,-21874.84
2019-03-19T12:52:46.272Z,-21893.60
2019-03-19T12:55:14.653Z,-21960.08
2019-03-19T12:57:43.005Z,-21902.90
2019-03-19T13:00:16.200Z,-21851.27
2019-03-19T13:02:44.497Z,-21913.69
2019-03-19T13:05:12.771Z,-21861.41
2019-03-19T13:07:41.066Z,-21894.42
2019-03-19T13:10:12.425Z,-21765.44
2019-03-19T13:12:40.717Z,-21812.95
2019-03-19T13:15:11.478Z,-21838.91
2019-03-19T13:17:39.918Z,-21802.36
2019-03-19T13:20:10.836Z,-21881.96
2019-03-19T13:22:39.884Z,-21898.66
2019-03-19T13:25:20.243Z,-21818.86
2019-03-19T13:27:48.499Z,-21882.92
2019-03-19T13:30:22.678Z,-21912.33
2019-03-19T13:32:51.049Z,-21946.32
2019-03-19T13:35:19.346Z,-21985.93
2019-03-19T13:37:47.601Z,-21899.48
2019-03-19T13:40:19.528Z,-21920.39
2019-03-19T13:42:49.974Z,-21959.39
2019-03-19T13:45:23.134Z,-21955.31
2019-03-19T13:47:51.423Z,-21990.28
2019-03-19T13:50:20.325Z,-21977.78
2019-03-19T13:52:48.727Z,-21894.42
2019-03-19T13:55:18.269Z,-21874.16
2019-03-19T13:57:46.533Z,-21906.59
2019-03-19T14:00:16.626Z,-21884.98
2019-03-19T14:02:44.963Z,-21880.32
2019-03-19T14:05:16.754Z,-21847.84
2019-03-19T14:07:45.067Z,-21909.46
2019-03-19T14:10:17.000Z,-21915.06
2019-03-19T14:12:45.348Z,-21883.20
2019-03-19T14:15:19.412Z,-21899.75
2019-03-19T14:17:47.740Z,-21955.04
2019-03-19T14:20:16.827Z,-21963.34
2019-03-19T14:22:45.885Z,-21942.09
2019-03-19T14:25:20.595Z,-21910.69
2019-03-19T14:27:48.886Z,-21916.97
2019-03-19T14:30:18.690Z,-21943.59
2019-03-19T14:32:47.043Z,-21943.59
2019-03-19T14:35:15.857Z,-21849.89
2019-03-19T14:37:44.193Z,-21918.07
2019-03-19T14:40:20.424Z,-21907.00
2019-03-19T14:42:49.259Z,-21885.52
2019-03-19T14:45:18.362Z,-21943.32
2019-03-19T14:47:46.777Z,-21964.16
2019-03-19T14:50:19.724Z,-21959.53
2019-03-19T14:52:48.006Z,-21987.57
2019-03-19T14:55:16.309Z,-22012.56
2019-03-19T14:57:44.557Z,-22007.13
2019-03-19T15:00:22.534Z,-21930.90
2019-03-19T15:02:50.888Z,-21994.22
2019-03-19T15:05:19.434Z,-21898.52
2019-03-19T15:07:47.783Z,-21837.41
2019-03-19T15:10:20.672Z,-21842.34
2019-03-19T15:12:48.966Z,-21764.34
2019-03-19T15:15:18.371Z,-21847.70
2019-03-19T15:17:46.731Z,-21899.89
2019-03-19T15:20:17.889Z,-21826.14
2019-03-19T15:22:46.254Z,-21867.71
2019-03-19T15:25:14.484Z,-21791.90
2019-03-19T15:27:42.742Z,-21896.88
2019-03-19T15:30:17.947Z,-21833.56
2019-03-19T15:32:46.289Z,-21788.04
2019-03-19T15:35:14.681Z,-21859.36
2019-03-19T15:37:43.254Z,-21917.11
2019-03-19T15:40:15.533Z,-21902.07
2019-03-19T15:42:43.851Z,-21950.12
2019-03-19T15:45:16.452Z,-21908.77
2019-03-19T15:47:44.711Z,-21941.13
2019-03-19T15:50:16.371Z,-21903.44
2019-03-19T15:52:44.649Z,-21903.44
2019-03-19T15:55:14.281Z,-21862.23
2019-03-19T15:57:42.659Z,-21916.42
2019-03-19T16:00:14.024Z,-21867.03
2019-03-19T16:02:42.369Z,-21827.93
2019-03-19T16:05:12.073Z,-21819.96
2019-03-19T16:07:40.449Z,-21861.28
2019-03-19T16:10:13.484Z,-21908.77
2019-03-19T16:12:41.770Z,-21918.48
2019-03-19T16:15:14.965Z,-21856.48
2019-03-19T16:17:43.302Z,-21886.48
2019-03-19T16:20:15.776Z,-21931.04
2019-03-19T16:22:51.382Z,-21836.99
2019-03-19T16:25:24.435Z,-21862.92
2019-03-19T16:27:53.012Z,-21892.23
2019-03-19T16:30:21.352Z,-21879.63
2019-03-19T16:32:49.644Z,-21844.27
2019-03-19T16:35:18.109Z,-21866.62
2019-03-19T16:37:46.405Z,-21879.77
2019-03-19T16:40:24.061Z,-21874.16
2019-03-19T16:42:52.385Z,-21863.88
2019-03-19T16:45:20.711Z,-21879.23
2019-03-19T16:47:49.027Z,-21839.19
2019-03-19T16:50:18.349Z,-21828.89
2019-03-19T16:52:46.774Z,-21817.90
2019-03-19T16:55:16.470Z,-21828.06
2019-03-19T16:57:44.761Z,-21769.86
2019-03-19T17:00:29.983Z,-21782.95
2019-03-19T17:02:58.273Z,-21726.23
2019-03-19T17:05:26.539Z,-21686.93
2019-03-19T17:07:54.825Z,-21684.58
2019-03-19T17:10:25.440Z,-21667.80
2019-03-19T17:12:53.796Z,-21677.52
2019-03-19T17:15:22.144Z,-21647.55
2019-03-19T17:17:50.502Z,-21658.93
2019-03-19T17:20:19.515Z,-21673.08
2019-03-19T17:22:47.860Z,-21675.98
2019-03-19T17:25:24.181Z,-21676.68
2019-03-19T17:27:52.464Z,-21664.34
2019-03-19T17:30:28.314Z,-21680.28
2019-03-19T17:32:56.583Z,-21679.04
2019-03-19T17:35:24.912Z,-21651.85
2019-03-19T17:37:53.238Z,-21629.21
2019-03-19T17:40:21.527Z,-21657.27
2019-03-19T17:42:49.929Z,-21652.55
2019-03-19T17:45:18.205Z,-21654.21
2019-03-19T17:47:46.598Z,-21656.16
2019-03-19T17:50:19.866Z,-21659.63
2019-03-19T17:52:50.486Z,-21654.49
2019-03-19T17:55:18.738Z,-21647.82
2019-03-19T17:57:47.007Z,-21638.53
2019-03-19T18:00:26.942Z,-21635.61
2019-03-19T18:02:55.244Z,-21614.75
2019-03-19T18:05:23.669Z,-21610.72
2019-03-19T18:07:51.909Z,-21633.66
2019-03-19T18:10:20.242Z,-21621.85
2019-03-19T18:12:48.526Z,-21628.10
2019-03-19T18:15:20.207Z,-21643.80
2019-03-19T18:17:48.478Z,-21638.38
2019-03-19T18:20:17.586Z,-21635.32
2019-03-19T18:22:45.923Z,-21645.19
2019-03-19T18:25:18.645Z,-21643.11
2019-03-19T18:27:47.142Z,-21648.80
2019-03-19T18:30:19.519Z,-21642.14
2019-03-19T18:32:47.857Z,-21627.82
2019-03-19T18:35:16.175Z,-21628.38
2019-03-19T18:37:44.439Z,-21626.43
2019-03-19T18:40:15.222Z,-21555.41
2019-03-19T18:42:43.548Z,-21558.76
2019-03-19T18:45:17.007Z,-21597.50
2019-03-19T18:47:45.538Z,-21598.75
2019-03-19T18:50:21.277Z,-21618.23
2019-03-19T18:52:49.551Z,-21606.13
2019-03-19T18:55:17.912Z,-21535.59
2019-03-19T18:57:46.281Z,-21567.82
2019-03-19T19:00:21.512Z,-21583.85
2019-03-19T19:02:51.057Z,-21575.35
2019-03-19T19:05:20.850Z,-21584.41
2019-03-19T19:07:49.123Z,-21555.83
2019-03-19T19:10:21.422Z,-21529.58
2019-03-19T19:12:50.088Z,-21548.01
2019-03-19T19:15:19.645Z,-21551.50
2019-03-19T19:17:47.897Z,-21531.68
2019-03-19T19:20:16.959Z,-21564.61
2019-03-19T19:22:45.245Z,-21581.34
2019-03-19T19:25:15.539Z,-21587.75
2019-03-19T19:27:43.809Z,-21597.50
2019-03-19T19:30:18.124Z,-21572.98
2019-03-19T19:32:46.406Z,-21583.57
2019-03-19T19:35:14.703Z,-21576.05
2019-03-19T19:37:42.951Z,-21580.92
2019-03-19T19:40:18.856Z,-21580.37
2019-03-19T19:42:47.213Z,-21570.61
2019-03-19T19:45:16.219Z,-21579.11
2019-03-19T19:47:44.681Z,-21573.54
2019-03-19T19:50:14.982Z,-21567.54
2019-03-19T19:52:43.263Z,-21543.68
2019-03-19T19:55:15.329Z,-21566.01
2019-03-19T19:57:43.960Z,-21560.01
2019-03-19T20:00:20.373Z,-21545.91
2019-03-19T20:02:48.989Z,-21562.10
2019-03-19T20:05:17.338Z,-21560.99
2019-03-19T20:07:45.699Z,-21553.32
2019-03-19T20:10:17.180Z,-21553.18
2019-03-19T20:12:45.532Z,-21553.32
2019-03-19T20:15:14.009Z,-21552.62
2019-03-19T20:17:42.607Z,-21553.45
2019-03-19T20:20:13.599Z,-21542.84
2019-03-19T20:22:41.882Z,-21539.49
2019-03-19T20:25:10.310Z,-21552.90
2019-03-19T20:27:38.615Z,-21502.31
2019-03-19T20:30:15.460Z,-21495.18
2019-03-19T20:32:47.437Z,-21532.09
2019-03-19T20:35:19.111Z,-21525.66
2019-03-19T20:37:47.404Z,-21516.58
2019-03-19T20:40:17.290Z,-21523.84
2019-03-19T20:42:45.776Z,-21496.44
2019-03-19T20:45:16.436Z,-21506.79
2019-03-19T20:47:44.698Z,-21521.19
2019-03-19T20:50:24.988Z,-21535.59
2019-03-19T20:52:53.279Z,-21512.39
2019-03-19T20:55:21.538Z,-21513.78
2019-03-19T20:57:49.903Z,-21535.44
2019-03-19T21:00:18.647Z,-21521.47
2019-03-19T21:02:46.969Z,-21539.64
2019-03-19T21:05:15.245Z,-21544.24
2019-03-19T21:07:43.593Z,-21535.44
2019-03-19T21:10:19.627Z,-21538.66
2019-03-19T21:12:47.888Z,-21542.29
2019-03-19T21:15:17.693Z,-21545.07
2019-03-19T21:17:46.839Z,-21528.88
2019-03-19T21:20:15.110Z,-21535.30
2019-03-19T21:22:43.417Z,-21495.46
2019-03-19T21:25:11.685Z,-21452.02
2019-03-19T21:27:40.085Z,-21456.79
2019-03-19T21:30:11.521Z,-21445.15
2019-03-19T21:32:39.945Z,-21509.59
2019-03-19T21:35:08.838Z,-21467.86
2019-03-19T21:37:37.119Z,-21467.73
2019-03-19T21:40:10.879Z,-21469.83
2019-03-19T21:42:38.934Z,-21455.81
2019-03-19T21:45:10.138Z,-21440.09
2019-03-19T21:47:38.414Z,-21448.80
2019-03-19T21:50:09.854Z,-21449.92
2019-03-19T21:52:38.127Z,-21463.80
2019-03-19T21:55:08.059Z,-21459.17
2019-03-19T21:57:36.338Z,-21429.99
2019-03-19T22:00:07.771Z,-21485.23
2019-03-19T22:02:36.060Z,-21476.55
2019-03-19T22:05:05.465Z,-21506.51
2019-03-19T22:07:33.725Z,-21507.76
2019-03-19T22:10:02.009Z,-21490.84
2019-03-19T22:12:30.303Z,-21511.13
2019-03-19T22:14:58.577Z,-21517.28
2019-03-19T22:17:26.891Z,-21518.54
2019-03-19T22:19:55.245Z,-21483.84
2019-03-19T22:22:23.528Z,-21510.15
2019-03-19T22:24:51.791Z,-21517.00
2019-03-19T22:27:20.077Z,-21520.21
2019-03-19T22:29:48.345Z,-21490.00
2019-03-19T22:32:16.628Z,-21489.58
2019-03-19T22:34:44.941Z,-21507.91
2019-03-19T22:37:13.206Z,-21447.95
2019-03-19T22:39:42.739Z,-21492.24
2019-03-19T22:42:11.123Z,-21498.82
2019-03-19T22:44:39.392Z,-21490.14
2019-03-19T22:47:07.705Z,-21482.29
2019-03-19T22:49:35.986Z,-21449.36
2019-03-19T22:52:04.246Z,-21447.53
2019-03-19T22:54:32.544Z,-21492.94
2019-03-19T22:57:00.818Z,-21502.31
2019-03-19T22:59:29.071Z,-21490.28
2019-03-19T23:01:57.361Z,-21493.22
2019-03-19T23:04:27.417Z,-21470.67
2019-03-19T23:06:55.619Z,-21479.91
2019-03-19T23:09:23.893Z,-21482.43
2019-03-19T23:11:52.185Z,-21476.27
2019-03-19T23:14:20.434Z,-21483.14
2019-03-19T23:16:48.783Z,-21473.19
2019-03-19T23:19:17.126Z,-21475.71
2019-03-19T23:21:45.325Z,-21477.67
2019-03-19T23:24:13.597Z,-21450.20
2019-03-19T23:26:41.863Z,-21448.94
2019-03-19T23:29:10.145Z,-21428.30
2019-03-19T23:31:38.482Z,-21448.80
2019-03-19T23:34:06.746Z,-21438.55
2019-03-19T23:36:35.059Z,-21444.03
2019-03-19T23:39:03.870Z,-21434.06
2019-03-19T23:41:32.127Z,-21437.00
2019-03-19T23:44:00.392Z,-21430.97
2019-03-19T23:46:28.662Z,-21449.50
2019-03-19T23:48:56.939Z,-21446.13
2019-03-19T23:51:25.215Z,-21438.55
2019-03-19T23:53:53.488Z,-21408.63
2019-03-19T23:56:21.787Z,-21426.62
2019-03-19T23:58:50.147Z,-21448.09
